sensor_id;sensor_type;location;lat;lon;timestamp;P1;durP1;ratioP1;P2;durP2;ratioP2
55497;SDS011;41357;52.806;18.268;2024-02-28T00:02:12;48.33;;;13.30;;
55497;SDS011;41357;52.806;18.268;2024-02-28T00:04:39;36.08;;;12.57;;
55497;SDS011;41357;52.806;18.268;2024-02-28T00:07:07;50.50;;;13.68;;
55497;SDS011;41357;52.806;18.268;2024-02-28T00:09:33;48.53;;;13.60;;
55497;SDS011;41357;52.806;18.268;2024-02-28T00:11:59;47.10;;;14.18;;
55497;SDS011;41357;52.806;18.268;2024-02-28T00:14:25;54.75;;;13.93;;
55497;SDS011;41357;52.806;18.268;2024-02-28T00:16:52;38.58;;;13.68;;
55497;SDS011;41357;52.806;18.268;2024-02-28T00:19:18;50.20;;;13.40;;
55497;SDS011;41357;52.806;18.268;2024-02-28T00:21:45;41.72;;;11.93;;
55497;SDS011;41357;52.806;18.268;2024-02-28T00:24:11;43.80;;;15.13;;
55497;SDS011;41357;52.806;18.268;2024-02-28T00:26:41;47.17;;;12.63;;
55497;SDS011;41357;52.806;18.268;2024-02-28T00:29:08;39.08;;;12.30;;
55497;SDS011;41357;52.806;18.268;2024-02-28T00:31:34;39.88;;;12.63;;
55497;SDS011;41357;52.806;18.268;2024-02-28T00:34:00;40.47;;;12.40;;
55497;SDS011;41357;52.806;18.268;2024-02-28T00:36:27;37.65;;;11.65;;
55497;SDS011;41357;52.806;18.268;2024-02-28T00:38:53;36.53;;;12.05;;
55497;SDS011;41357;52.806;18.268;2024-02-28T00:41:19;47.03;;;12.50;;
55497;SDS011;41357;52.806;18.268;2024-02-28T00:43:45;38.92;;;12.95;;
55497;SDS011;41357;52.806;18.268;2024-02-28T00:46:11;37.80;;;12.90;;
55497;SDS011;41357;52.806;18.268;2024-02-28T00:48:38;41.20;;;12.68;;
55497;SDS011;41357;52.806;18.268;2024-02-28T00:51:04;48.50;;;13.65;;
55497;SDS011;41357;52.806;18.268;2024-02-28T00:53:31;43.97;;;13.75;;
55497;SDS011;41357;52.806;18.268;2024-02-28T00:55:57;38.53;;;12.93;;
55497;SDS011;41357;52.806;18.268;2024-02-28T00:58:23;53.63;;;14.27;;
55497;SDS011;41357;52.806;18.268;2024-02-28T01:00:51;35.05;;;11.32;;
55497;SDS011;41357;52.806;18.268;2024-02-28T01:03:17;35.58;;;11.40;;
55497;SDS011;41357;52.806;18.268;2024-02-28T01:05:43;41.92;;;13.20;;
55497;SDS011;41357;52.806;18.268;2024-02-28T01:08:10;39.75;;;12.93;;
55497;SDS011;41357;52.806;18.268;2024-02-28T01:10:36;51.80;;;12.18;;
55497;SDS011;41357;52.806;18.268;2024-02-28T01:13:03;45.83;;;15.30;;
55497;SDS011;41357;52.806;18.268;2024-02-28T01:15:29;48.97;;;15.70;;
55497;SDS011;41357;52.806;18.268;2024-02-28T01:17:55;46.88;;;13.52;;
55497;SDS011;41357;52.806;18.268;2024-02-28T01:20:22;36.58;;;11.70;;
55497;SDS011;41357;52.806;18.268;2024-02-28T01:22:48;39.85;;;12.85;;
55497;SDS011;41357;52.806;18.268;2024-02-28T01:25:14;42.95;;;13.75;;
55497;SDS011;41357;52.806;18.268;2024-02-28T01:27:40;37.42;;;11.18;;
55497;SDS011;41357;52.806;18.268;2024-02-28T01:30:06;38.92;;;12.18;;
55497;SDS011;41357;52.806;18.268;2024-02-28T01:32:33;43.70;;;13.00;;
55497;SDS011;41357;52.806;18.268;2024-02-28T01:34:59;37.22;;;12.75;;
55497;SDS011;41357;52.806;18.268;2024-02-28T01:37:25;40.65;;;14.07;;
55497;SDS011;41357;52.806;18.268;2024-02-28T01:39:52;41.17;;;13.05;;
55497;SDS011;41357;52.806;18.268;2024-02-28T01:42:18;36.50;;;12.15;;
55497;SDS011;41357;52.806;18.268;2024-02-28T01:44:45;40.13;;;12.75;;
55497;SDS011;41357;52.806;18.268;2024-02-28T01:47:13;35.78;;;11.73;;
55497;SDS011;41357;52.806;18.268;2024-02-28T01:49:40;37.92;;;12.35;;
55497;SDS011;41357;52.806;18.268;2024-02-28T01:52:07;32.13;;;11.95;;
55497;SDS011;41357;52.806;18.268;2024-02-28T01:54:34;34.22;;;11.05;;
55497;SDS011;41357;52.806;18.268;2024-02-28T01:57:01;34.70;;;11.43;;
55497;SDS011;41357;52.806;18.268;2024-02-28T01:59:27;31.35;;;11.10;;
55497;SDS011;41357;52.806;18.268;2024-02-28T02:01:54;24.95;;;10.15;;
55497;SDS011;41357;52.806;18.268;2024-02-28T02:04:20;34.28;;;11.00;;
55497;SDS011;41357;52.806;18.268;2024-02-28T02:06:47;33.42;;;11.60;;
55497;SDS011;41357;52.806;18.268;2024-02-28T02:09:14;26.88;;;9.60;;
55497;SDS011;41357;52.806;18.268;2024-02-28T02:11:40;27.90;;;10.68;;
55497;SDS011;41357;52.806;18.268;2024-02-28T02:14:07;27.90;;;9.82;;
55497;SDS011;41357;52.806;18.268;2024-02-28T02:16:34;28.45;;;9.75;;
55497;SDS011;41357;52.806;18.268;2024-02-28T02:19:00;24.65;;;9.05;;
55497;SDS011;41357;52.806;18.268;2024-02-28T02:21:34;25.38;;;9.95;;
55497;SDS011;41357;52.806;18.268;2024-02-28T02:24:00;27.70;;;9.35;;
55497;SDS011;41357;52.806;18.268;2024-02-28T02:26:26;32.83;;;10.10;;
55497;SDS011;41357;52.806;18.268;2024-02-28T02:28:52;27.58;;;9.63;;
55497;SDS011;41357;52.806;18.268;2024-02-28T02:31:19;25.23;;;9.45;;
55497;SDS011;41357;52.806;18.268;2024-02-28T02:33:45;25.98;;;10.07;;
55497;SDS011;41357;52.806;18.268;2024-02-28T02:36:11;28.58;;;9.95;;
55497;SDS011;41357;52.806;18.268;2024-02-28T02:38:37;32.88;;;9.52;;
55497;SDS011;41357;52.806;18.268;2024-02-28T02:41:03;26.48;;;10.20;;
55497;SDS011;41357;52.806;18.268;2024-02-28T02:43:30;30.10;;;10.52;;
55497;SDS011;41357;52.806;18.268;2024-02-28T02:45:56;30.02;;;10.27;;
55497;SDS011;41357;52.806;18.268;2024-02-28T02:48:22;35.80;;;10.70;;
55497;SDS011;41357;52.806;18.268;2024-02-28T02:50:48;36.20;;;10.20;;
55497;SDS011;41357;52.806;18.268;2024-02-28T02:53:14;29.50;;;9.73;;
55497;SDS011;41357;52.806;18.268;2024-02-28T02:55:40;28.88;;;9.60;;
55497;SDS011;41357;52.806;18.268;2024-02-28T02:58:06;35.03;;;10.77;;
55497;SDS011;41357;52.806;18.268;2024-02-28T03:00:33;33.20;;;10.40;;
55497;SDS011;41357;52.806;18.268;2024-02-28T03:02:59;38.80;;;11.18;;
55497;SDS011;41357;52.806;18.268;2024-02-28T03:05:25;44.15;;;11.40;;
55497;SDS011;41357;52.806;18.268;2024-02-28T03:07:51;40.42;;;10.75;;
55497;SDS011;41357;52.806;18.268;2024-02-28T03:10:17;35.45;;;11.00;;
55497;SDS011;41357;52.806;18.268;2024-02-28T03:12:44;35.65;;;11.57;;
55497;SDS011;41357;52.806;18.268;2024-02-28T03:15:10;37.78;;;10.18;;
55497;SDS011;41357;52.806;18.268;2024-02-28T03:17:36;38.40;;;11.05;;
55497;SDS011;41357;52.806;18.268;2024-02-28T03:20:03;40.63;;;11.80;;
55497;SDS011;41357;52.806;18.268;2024-02-28T03:22:29;35.42;;;11.25;;
55497;SDS011;41357;52.806;18.268;2024-02-28T03:24:55;38.15;;;11.05;;
55497;SDS011;41357;52.806;18.268;2024-02-28T03:27:21;33.30;;;10.18;;
55497;SDS011;41357;52.806;18.268;2024-02-28T03:29:48;32.08;;;11.13;;
55497;SDS011;41357;52.806;18.268;2024-02-28T03:32:14;44.38;;;12.13;;
55497;SDS011;41357;52.806;18.268;2024-02-28T03:34:40;47.17;;;13.00;;
55497;SDS011;41357;52.806;18.268;2024-02-28T03:37:06;55.75;;;12.93;;
55497;SDS011;41357;52.806;18.268;2024-02-28T03:39:32;44.22;;;12.20;;
55497;SDS011;41357;52.806;18.268;2024-02-28T03:41:58;48.13;;;11.73;;
55497;SDS011;41357;52.806;18.268;2024-02-28T03:44:25;43.20;;;12.23;;
55497;SDS011;41357;52.806;18.268;2024-02-28T03:46:51;44.15;;;13.02;;
55497;SDS011;41357;52.806;18.268;2024-02-28T03:49:17;44.50;;;12.32;;
55497;SDS011;41357;52.806;18.268;2024-02-28T03:51:43;44.40;;;11.98;;
55497;SDS011;41357;52.806;18.268;2024-02-28T03:54:09;37.55;;;11.55;;
55497;SDS011;41357;52.806;18.268;2024-02-28T03:56:36;33.03;;;11.98;;
55497;SDS011;41357;52.806;18.268;2024-02-28T03:59:02;37.45;;;12.45;;
55497;SDS011;41357;52.806;18.268;2024-02-28T04:01:29;32.55;;;10.63;;
55497;SDS011;41357;52.806;18.268;2024-02-28T04:03:55;33.40;;;10.05;;
55497;SDS011;41357;52.806;18.268;2024-02-28T04:06:21;24.88;;;9.00;;
55497;SDS011;41357;52.806;18.268;2024-02-28T04:08:47;29.60;;;9.93;;
55497;SDS011;41357;52.806;18.268;2024-02-28T04:11:13;24.83;;;9.75;;
55497;SDS011;41357;52.806;18.268;2024-02-28T04:13:40;26.15;;;9.73;;
55497;SDS011;41357;52.806;18.268;2024-02-28T04:16:07;28.83;;;9.68;;
55497;SDS011;41357;52.806;18.268;2024-02-28T04:18:34;30.35;;;9.60;;
55497;SDS011;41357;52.806;18.268;2024-02-28T04:21:00;28.80;;;10.07;;
55497;SDS011;41357;52.806;18.268;2024-02-28T04:23:26;29.33;;;10.00;;
55497;SDS011;41357;52.806;18.268;2024-02-28T04:25:53;28.95;;;9.15;;
55497;SDS011;41357;52.806;18.268;2024-02-28T04:28:19;36.25;;;11.70;;
55497;SDS011;41357;52.806;18.268;2024-02-28T04:30:45;34.30;;;10.43;;
55497;SDS011;41357;52.806;18.268;2024-02-28T04:33:11;40.13;;;11.90;;
55497;SDS011;41357;52.806;18.268;2024-02-28T04:35:37;31.33;;;9.95;;
55497;SDS011;41357;52.806;18.268;2024-02-28T04:38:03;39.67;;;12.30;;
55497;SDS011;41357;52.806;18.268;2024-02-28T04:40:29;29.60;;;9.65;;
55497;SDS011;41357;52.806;18.268;2024-02-28T04:42:56;28.33;;;10.88;;
55497;SDS011;41357;52.806;18.268;2024-02-28T04:45:22;24.10;;;8.88;;
55497;SDS011;41357;52.806;18.268;2024-02-28T04:47:48;25.80;;;9.27;;
55497;SDS011;41357;52.806;18.268;2024-02-28T04:50:16;22.70;;;8.38;;
55497;SDS011;41357;52.806;18.268;2024-02-28T04:52:43;20.00;;;7.03;;
55497;SDS011;41357;52.806;18.268;2024-02-28T04:55:09;23.20;;;8.68;;
55497;SDS011;41357;52.806;18.268;2024-02-28T04:57:35;28.30;;;9.48;;
55497;SDS011;41357;52.806;18.268;2024-02-28T05:00:01;28.60;;;9.00;;
55497;SDS011;41357;52.806;18.268;2024-02-28T05:02:28;25.90;;;8.15;;
55497;SDS011;41357;52.806;18.268;2024-02-28T05:04:54;19.02;;;7.25;;
55497;SDS011;41357;52.806;18.268;2024-02-28T05:07:21;22.35;;;8.98;;
55497;SDS011;41357;52.806;18.268;2024-02-28T05:09:47;25.80;;;8.75;;
55497;SDS011;41357;52.806;18.268;2024-02-28T05:12:13;21.73;;;8.55;;
55497;SDS011;41357;52.806;18.268;2024-02-28T05:14:40;23.05;;;9.32;;
55497;SDS011;41357;52.806;18.268;2024-02-28T05:17:06;26.00;;;9.23;;
55497;SDS011;41357;52.806;18.268;2024-02-28T05:19:32;23.67;;;8.90;;
55497;SDS011;41357;52.806;18.268;2024-02-28T05:21:58;29.65;;;9.27;;
55497;SDS011;41357;52.806;18.268;2024-02-28T05:24:26;27.63;;;9.68;;
55497;SDS011;41357;52.806;18.268;2024-02-28T05:26:52;29.00;;;10.00;;
55497;SDS011;41357;52.806;18.268;2024-02-28T05:29:18;25.08;;;9.07;;
55497;SDS011;41357;52.806;18.268;2024-02-28T05:31:44;29.83;;;9.43;;
55497;SDS011;41357;52.806;18.268;2024-02-28T05:34:10;30.27;;;10.65;;
55497;SDS011;41357;52.806;18.268;2024-02-28T05:36:36;28.52;;;9.50;;
55497;SDS011;41357;52.806;18.268;2024-02-28T05:39:03;27.17;;;9.10;;
55497;SDS011;41357;52.806;18.268;2024-02-28T05:41:33;32.77;;;9.87;;
55497;SDS011;41357;52.806;18.268;2024-02-28T05:43:59;31.27;;;10.05;;
55497;SDS011;41357;52.806;18.268;2024-02-28T05:46:25;25.48;;;9.20;;
55497;SDS011;41357;52.806;18.268;2024-02-28T05:48:51;21.23;;;8.15;;
55497;SDS011;41357;52.806;18.268;2024-02-28T05:51:17;27.08;;;8.65;;
55497;SDS011;41357;52.806;18.268;2024-02-28T05:53:44;21.20;;;8.38;;
55497;SDS011;41357;52.806;18.268;2024-02-28T05:56:10;21.98;;;7.78;;
55497;SDS011;41357;52.806;18.268;2024-02-28T05:58:43;18.02;;;7.57;;
55497;SDS011;41357;52.806;18.268;2024-02-28T06:01:09;23.65;;;9.15;;
55497;SDS011;41357;52.806;18.268;2024-02-28T06:03:36;22.52;;;8.18;;
55497;SDS011;41357;52.806;18.268;2024-02-28T06:06:02;18.00;;;8.10;;
55497;SDS011;41357;52.806;18.268;2024-02-28T06:08:35;19.23;;;7.97;;
55497;SDS011;41357;52.806;18.268;2024-02-28T06:11:03;23.63;;;9.80;;
55497;SDS011;41357;52.806;18.268;2024-02-28T06:13:30;19.75;;;7.57;;
55497;SDS011;41357;52.806;18.268;2024-02-28T06:15:56;22.98;;;9.20;;
55497;SDS011;41357;52.806;18.268;2024-02-28T06:18:25;23.52;;;8.38;;
55497;SDS011;41357;52.806;18.268;2024-02-28T06:20:58;23.70;;;8.55;;
55497;SDS011;41357;52.806;18.268;2024-02-28T06:23:24;29.40;;;9.20;;
55497;SDS011;41357;52.806;18.268;2024-02-28T06:25:51;26.80;;;9.32;;
55497;SDS011;41357;52.806;18.268;2024-02-28T06:28:17;25.88;;;10.70;;
55497;SDS011;41357;52.806;18.268;2024-02-28T06:30:43;24.95;;;10.23;;
55497;SDS011;41357;52.806;18.268;2024-02-28T06:33:13;37.88;;;11.35;;
55497;SDS011;41357;52.806;18.268;2024-02-28T06:35:40;34.33;;;12.45;;
55497;SDS011;41357;52.806;18.268;2024-02-28T06:38:06;40.38;;;14.93;;
55497;SDS011;41357;52.806;18.268;2024-02-28T06:40:33;39.97;;;15.20;;
55497;SDS011;41357;52.806;18.268;2024-02-28T06:43:00;45.33;;;15.70;;
55497;SDS011;41357;52.806;18.268;2024-02-28T06:45:26;40.33;;;14.38;;
55497;SDS011;41357;52.806;18.268;2024-02-28T06:47:52;45.95;;;17.25;;
55497;SDS011;41357;52.806;18.268;2024-02-28T06:50:18;38.20;;;14.20;;
55497;SDS011;41357;52.806;18.268;2024-02-28T06:52:47;42.08;;;15.10;;
55497;SDS011;41357;52.806;18.268;2024-02-28T06:55:13;41.58;;;14.35;;
55497;SDS011;41357;52.806;18.268;2024-02-28T06:57:40;40.33;;;12.77;;
55497;SDS011;41357;52.806;18.268;2024-02-28T07:00:08;27.17;;;9.15;;
55497;SDS011;41357;52.806;18.268;2024-02-28T07:02:35;30.02;;;11.18;;
55497;SDS011;41357;52.806;18.268;2024-02-28T07:05:02;39.83;;;12.15;;
55497;SDS011;41357;52.806;18.268;2024-02-28T07:07:32;37.00;;;13.13;;
55497;SDS011;41357;52.806;18.268;2024-02-28T07:09:58;66.00;;;18.70;;
55497;SDS011;41357;52.806;18.268;2024-02-28T07:12:24;68.95;;;24.13;;
55497;SDS011;41357;52.806;18.268;2024-02-28T07:14:51;48.67;;;17.40;;
55497;SDS011;41357;52.806;18.268;2024-02-28T07:17:17;46.67;;;17.48;;
55497;SDS011;41357;52.806;18.268;2024-02-28T07:19:43;40.60;;;14.45;;
55497;SDS011;41357;52.806;18.268;2024-02-28T07:22:09;33.10;;;14.00;;
55497;SDS011;41357;52.806;18.268;2024-02-28T07:24:35;30.27;;;13.18;;
55497;SDS011;41357;52.806;18.268;2024-02-28T07:27:02;28.95;;;10.80;;
55497;SDS011;41357;52.806;18.268;2024-02-28T07:29:28;24.23;;;9.60;;
55497;SDS011;41357;52.806;18.268;2024-02-28T07:31:54;30.30;;;11.40;;
55497;SDS011;41357;52.806;18.268;2024-02-28T07:34:20;33.38;;;13.23;;
55497;SDS011;41357;52.806;18.268;2024-02-28T07:36:47;38.50;;;13.80;;
55497;SDS011;41357;52.806;18.268;2024-02-28T07:39:13;40.85;;;12.57;;
55497;SDS011;41357;52.806;18.268;2024-02-28T07:41:39;33.00;;;14.40;;
55497;SDS011;41357;52.806;18.268;2024-02-28T07:44:07;28.17;;;11.20;;
55497;SDS011;41357;52.806;18.268;2024-02-28T07:46:34;33.22;;;13.02;;
55497;SDS011;41357;52.806;18.268;2024-02-28T07:49:00;30.70;;;11.70;;
55497;SDS011;41357;52.806;18.268;2024-02-28T07:51:27;25.80;;;10.88;;
55497;SDS011;41357;52.806;18.268;2024-02-28T07:53:53;34.05;;;11.25;;
55497;SDS011;41357;52.806;18.268;2024-02-28T07:56:19;32.83;;;12.73;;
55497;SDS011;41357;52.806;18.268;2024-02-28T07:58:46;30.00;;;11.18;;
55497;SDS011;41357;52.806;18.268;2024-02-28T08:01:12;27.15;;;10.70;;
55497;SDS011;41357;52.806;18.268;2024-02-28T08:03:39;21.20;;;11.32;;
55497;SDS011;41357;52.806;18.268;2024-02-28T08:06:06;32.83;;;11.13;;
55497;SDS011;41357;52.806;18.268;2024-02-28T08:08:34;30.00;;;11.25;;
55497;SDS011;41357;52.806;18.268;2024-02-28T08:11:00;22.45;;;9.88;;
55497;SDS011;41357;52.806;18.268;2024-02-28T08:13:26;19.40;;;8.82;;
55497;SDS011;41357;52.806;18.268;2024-02-28T08:15:53;24.02;;;9.23;;
55497;SDS011;41357;52.806;18.268;2024-02-28T08:18:20;24.52;;;9.88;;
55497;SDS011;41357;52.806;18.268;2024-02-28T08:20:46;23.58;;;9.30;;
55497;SDS011;41357;52.806;18.268;2024-02-28T08:23:12;23.42;;;9.75;;
55497;SDS011;41357;52.806;18.268;2024-02-28T08:25:38;22.17;;;8.90;;
55497;SDS011;41357;52.806;18.268;2024-02-28T08:28:04;21.85;;;8.63;;
55497;SDS011;41357;52.806;18.268;2024-02-28T08:30:31;23.20;;;9.15;;
55497;SDS011;41357;52.806;18.268;2024-02-28T08:32:59;22.25;;;8.25;;
55497;SDS011;41357;52.806;18.268;2024-02-28T08:35:25;22.58;;;9.40;;
55497;SDS011;41357;52.806;18.268;2024-02-28T08:37:51;21.15;;;8.27;;
55497;SDS011;41357;52.806;18.268;2024-02-28T08:40:18;21.85;;;8.90;;
55497;SDS011;41357;52.806;18.268;2024-02-28T08:42:44;19.00;;;7.40;;
55497;SDS011;41357;52.806;18.268;2024-02-28T08:45:11;20.73;;;7.55;;
55497;SDS011;41357;52.806;18.268;2024-02-28T08:47:37;17.33;;;7.53;;
55497;SDS011;41357;52.806;18.268;2024-02-28T08:50:04;16.23;;;7.38;;
55497;SDS011;41357;52.806;18.268;2024-02-28T08:52:30;17.27;;;7.35;;
55497;SDS011;41357;52.806;18.268;2024-02-28T08:54:56;19.20;;;8.63;;
55497;SDS011;41357;52.806;18.268;2024-02-28T08:57:22;16.98;;;8.02;;
55497;SDS011;41357;52.806;18.268;2024-02-28T08:59:49;23.08;;;9.73;;
55497;SDS011;41357;52.806;18.268;2024-02-28T09:02:15;22.55;;;8.32;;
55497;SDS011;41357;52.806;18.268;2024-02-28T09:04:41;25.45;;;9.55;;
55497;SDS011;41357;52.806;18.268;2024-02-28T09:07:08;22.60;;;10.13;;
55497;SDS011;41357;52.806;18.268;2024-02-28T09:09:34;25.42;;;10.43;;
55497;SDS011;41357;52.806;18.268;2024-02-28T09:12:03;22.33;;;9.23;;
55497;SDS011;41357;52.806;18.268;2024-02-28T09:14:29;24.70;;;10.75;;
55497;SDS011;41357;52.806;18.268;2024-02-28T09:16:56;22.75;;;9.35;;
55497;SDS011;41357;52.806;18.268;2024-02-28T09:19:28;22.10;;;10.00;;
55497;SDS011;41357;52.806;18.268;2024-02-28T09:21:54;27.05;;;11.20;;
55497;SDS011;41357;52.806;18.268;2024-02-28T09:24:20;39.22;;;16.60;;
55497;SDS011;41357;52.806;18.268;2024-02-28T09:26:46;31.35;;;12.60;;
55497;SDS011;41357;52.806;18.268;2024-02-28T09:29:12;24.20;;;10.15;;
55497;SDS011;41357;52.806;18.268;2024-02-28T09:31:39;27.95;;;12.25;;
55497;SDS011;41357;52.806;18.268;2024-02-28T09:34:05;28.63;;;11.80;;
55497;SDS011;41357;52.806;18.268;2024-02-28T09:36:41;33.75;;;13.27;;
55497;SDS011;41357;52.806;18.268;2024-02-28T09:39:08;32.90;;;12.93;;
55497;SDS011;41357;52.806;18.268;2024-02-28T09:41:34;33.13;;;13.43;;
55497;SDS011;41357;52.806;18.268;2024-02-28T09:44:02;35.28;;;13.38;;
55497;SDS011;41357;52.806;18.268;2024-02-28T09:46:28;41.03;;;15.75;;
55497;SDS011;41357;52.806;18.268;2024-02-28T09:48:55;37.30;;;13.88;;
55497;SDS011;41357;52.806;18.268;2024-02-28T09:51:21;34.55;;;13.15;;
55497;SDS011;41357;52.806;18.268;2024-02-28T09:53:49;40.10;;;14.80;;
55497;SDS011;41357;52.806;18.268;2024-02-28T09:56:16;41.55;;;15.10;;
55497;SDS011;41357;52.806;18.268;2024-02-28T09:58:42;47.63;;;17.15;;
55497;SDS011;41357;52.806;18.268;2024-02-28T10:01:08;42.95;;;14.10;;
55497;SDS011;41357;52.806;18.268;2024-02-28T10:03:37;44.92;;;14.77;;
55497;SDS011;41357;52.806;18.268;2024-02-28T10:06:03;43.20;;;14.43;;
55497;SDS011;41357;52.806;18.268;2024-02-28T10:08:30;51.25;;;17.65;;
55497;SDS011;41357;52.806;18.268;2024-02-28T10:10:56;43.17;;;14.07;;
55497;SDS011;41357;52.806;18.268;2024-02-28T10:13:23;47.53;;;16.92;;
55497;SDS011;41357;52.806;18.268;2024-02-28T10:15:49;34.10;;;12.13;;
55497;SDS011;41357;52.806;18.268;2024-02-28T10:18:16;39.70;;;15.90;;
55497;SDS011;41357;52.806;18.268;2024-02-28T10:20:42;56.65;;;18.08;;
55497;SDS011;41357;52.806;18.268;2024-02-28T10:23:08;57.22;;;18.02;;
55497;SDS011;41357;52.806;18.268;2024-02-28T10:25:44;49.50;;;16.75;;
55497;SDS011;41357;52.806;18.268;2024-02-28T10:28:11;66.95;;;19.10;;
55497;SDS011;41357;52.806;18.268;2024-02-28T10:30:42;70.45;;;22.58;;
55497;SDS011;41357;52.806;18.268;2024-02-28T10:33:14;85.78;;;25.48;;
55497;SDS011;41357;52.806;18.268;2024-02-28T10:35:41;72.97;;;22.10;;
55497;SDS011;41357;52.806;18.268;2024-02-28T10:38:11;72.30;;;26.90;;
55497;SDS011;41357;52.806;18.268;2024-02-28T10:40:39;60.85;;;22.20;;
55497;SDS011;41357;52.806;18.268;2024-02-28T10:43:07;61.28;;;23.27;;
55497;SDS011;41357;52.806;18.268;2024-02-28T10:45:37;60.97;;;22.20;;
55497;SDS011;41357;52.806;18.268;2024-02-28T10:48:04;43.13;;;15.82;;
55497;SDS011;41357;52.806;18.268;2024-02-28T10:50:31;35.05;;;13.05;;
55497;SDS011;41357;52.806;18.268;2024-02-28T10:53:01;47.20;;;17.23;;
55497;SDS011;41357;52.806;18.268;2024-02-28T10:55:32;35.78;;;11.63;;
55497;SDS011;41357;52.806;18.268;2024-02-28T10:58:03;44.72;;;17.08;;
55497;SDS011;41357;52.806;18.268;2024-02-28T11:00:30;49.83;;;16.40;;
55497;SDS011;41357;52.806;18.268;2024-02-28T11:02:56;36.38;;;12.75;;
55497;SDS011;41357;52.806;18.268;2024-02-28T11:05:23;39.72;;;15.85;;
55497;SDS011;41357;52.806;18.268;2024-02-28T11:07:52;31.00;;;12.45;;
55497;SDS011;41357;52.806;18.268;2024-02-28T11:10:23;42.50;;;14.30;;
55497;SDS011;41357;52.806;18.268;2024-02-28T11:12:54;41.47;;;13.30;;
55497;SDS011;41357;52.806;18.268;2024-02-28T11:15:20;31.13;;;13.80;;
55497;SDS011;41357;52.806;18.268;2024-02-28T11:17:52;28.58;;;11.02;;
55497;SDS011;41357;52.806;18.268;2024-02-28T11:20:18;38.28;;;15.52;;
55497;SDS011;41357;52.806;18.268;2024-02-28T11:22:45;37.20;;;13.88;;
55497;SDS011;41357;52.806;18.268;2024-02-28T11:25:11;39.78;;;14.10;;
55497;SDS011;41357;52.806;18.268;2024-02-28T11:27:47;30.92;;;11.68;;
55497;SDS011;41357;52.806;18.268;2024-02-28T11:30:13;35.25;;;12.98;;
55497;SDS011;41357;52.806;18.268;2024-02-28T11:32:40;41.20;;;12.68;;
55497;SDS011;41357;52.806;18.268;2024-02-28T11:35:07;34.63;;;12.98;;
55497;SDS011;41357;52.806;18.268;2024-02-28T11:37:34;37.35;;;13.32;;
55497;SDS011;41357;52.806;18.268;2024-02-28T11:40:00;32.58;;;12.52;;
55497;SDS011;41357;52.806;18.268;2024-02-28T11:42:26;37.28;;;15.73;;
55497;SDS011;41357;52.806;18.268;2024-02-28T11:44:54;37.58;;;16.25;;
55497;SDS011;41357;52.806;18.268;2024-02-28T11:47:22;33.42;;;12.35;;
55497;SDS011;41357;52.806;18.268;2024-02-28T11:49:48;33.53;;;13.07;;
55497;SDS011;41357;52.806;18.268;2024-02-28T11:52:15;26.85;;;11.98;;
55497;SDS011;41357;52.806;18.268;2024-02-28T11:54:41;33.22;;;12.57;;
55497;SDS011;41357;52.806;18.268;2024-02-28T11:57:08;35.17;;;13.48;;
55497;SDS011;41357;52.806;18.268;2024-02-28T11:59:39;35.80;;;13.80;;
55497;SDS011;41357;52.806;18.268;2024-02-28T12:02:11;36.15;;;14.38;;
55497;SDS011;41357;52.806;18.268;2024-02-28T12:04:38;28.67;;;12.68;;
55497;SDS011;41357;52.806;18.268;2024-02-28T12:07:05;28.58;;;11.63;;
55497;SDS011;41357;52.806;18.268;2024-02-28T12:09:31;30.70;;;14.27;;
55497;SDS011;41357;52.806;18.268;2024-02-28T12:12:00;30.88;;;13.75;;
55497;SDS011;41357;52.806;18.268;2024-02-28T12:14:26;30.25;;;11.88;;
55497;SDS011;41357;52.806;18.268;2024-02-28T12:16:52;19.73;;;10.18;;
55497;SDS011;41357;52.806;18.268;2024-02-28T12:19:19;30.48;;;12.80;;
55497;SDS011;41357;52.806;18.268;2024-02-28T12:21:45;26.35;;;10.15;;
55497;SDS011;41357;52.806;18.268;2024-02-28T12:24:12;28.88;;;11.85;;
55497;SDS011;41357;52.806;18.268;2024-02-28T12:26:39;23.75;;;10.93;;
55497;SDS011;41357;52.806;18.268;2024-02-28T12:29:05;20.00;;;9.27;;
55497;SDS011;41357;52.806;18.268;2024-02-28T12:31:31;21.08;;;9.98;;
55497;SDS011;41357;52.806;18.268;2024-02-28T12:33:57;22.65;;;11.52;;
55497;SDS011;41357;52.806;18.268;2024-02-28T12:36:24;25.73;;;10.38;;
55497;SDS011;41357;52.806;18.268;2024-02-28T12:38:51;22.33;;;9.90;;
55497;SDS011;41357;52.806;18.268;2024-02-28T12:41:17;24.02;;;10.25;;
55497;SDS011;41357;52.806;18.268;2024-02-28T12:43:44;25.02;;;10.95;;
55497;SDS011;41357;52.806;18.268;2024-02-28T12:46:10;25.17;;;10.57;;
55497;SDS011;41357;52.806;18.268;2024-02-28T12:48:39;28.00;;;12.50;;
55497;SDS011;41357;52.806;18.268;2024-02-28T12:53:52;39.75;;;16.40;;
55497;SDS011;41357;52.806;18.268;2024-02-28T12:56:21;34.25;;;14.85;;
55497;SDS011;41357;52.806;18.268;2024-02-28T12:58:47;36.65;;;14.95;;
55497;SDS011;41357;52.806;18.268;2024-02-28T13:01:13;26.42;;;11.43;;
55497;SDS011;41357;52.806;18.268;2024-02-28T13:03:39;23.00;;;9.88;;
55497;SDS011;41357;52.806;18.268;2024-02-28T13:06:05;27.88;;;11.80;;
55497;SDS011;41357;52.806;18.268;2024-02-28T13:08:32;27.73;;;13.95;;
55497;SDS011;41357;52.806;18.268;2024-02-28T13:10:58;27.58;;;12.63;;
55497;SDS011;41357;52.806;18.268;2024-02-28T13:13:24;33.30;;;13.13;;
55497;SDS011;41357;52.806;18.268;2024-02-28T13:15:50;28.13;;;11.82;;
55497;SDS011;41357;52.806;18.268;2024-02-28T13:18:16;29.17;;;11.10;;
55497;SDS011;41357;52.806;18.268;2024-02-28T13:20:44;28.30;;;11.00;;
55497;SDS011;41357;52.806;18.268;2024-02-28T13:23:10;24.08;;;11.55;;
55497;SDS011;41357;52.806;18.268;2024-02-28T13:25:36;26.45;;;12.43;;
55497;SDS011;41357;52.806;18.268;2024-02-28T13:28:02;39.90;;;15.05;;
55497;SDS011;41357;52.806;18.268;2024-02-28T13:30:29;25.58;;;11.82;;
55497;SDS011;41357;52.806;18.268;2024-02-28T13:32:55;20.65;;;9.77;;
55497;SDS011;41357;52.806;18.268;2024-02-28T13:35:22;20.45;;;9.75;;
55497;SDS011;41357;52.806;18.268;2024-02-28T13:37:48;25.52;;;9.43;;
55497;SDS011;41357;52.806;18.268;2024-02-28T13:40:14;26.20;;;10.77;;
55497;SDS011;41357;52.806;18.268;2024-02-28T13:42:41;28.55;;;11.48;;
55497;SDS011;41357;52.806;18.268;2024-02-28T13:45:07;30.35;;;11.35;;
55497;SDS011;41357;52.806;18.268;2024-02-28T13:47:35;27.35;;;11.05;;
55497;SDS011;41357;52.806;18.268;2024-02-28T13:50:02;21.38;;;7.57;;
55497;SDS011;41357;52.806;18.268;2024-02-28T13:52:28;24.40;;;10.15;;
55497;SDS011;41357;52.806;18.268;2024-02-28T13:54:54;21.73;;;9.82;;
55497;SDS011;41357;52.806;18.268;2024-02-28T13:57:21;20.15;;;9.95;;
55497;SDS011;41357;52.806;18.268;2024-02-28T13:59:47;24.77;;;11.30;;
55497;SDS011;41357;52.806;18.268;2024-02-28T14:02:14;22.02;;;9.68;;
55497;SDS011;41357;52.806;18.268;2024-02-28T14:04:41;20.90;;;9.80;;
55497;SDS011;41357;52.806;18.268;2024-02-28T14:07:08;24.33;;;9.30;;
55497;SDS011;41357;52.806;18.268;2024-02-28T14:09:35;20.40;;;7.70;;
55497;SDS011;41357;52.806;18.268;2024-02-28T14:12:01;18.65;;;8.48;;
55497;SDS011;41357;52.806;18.268;2024-02-28T14:14:27;19.95;;;8.75;;